Time,TemperatureF,DewpointF,PressureIn,WindDirection,WindDirectionDegrees,WindSpeedMPH,WindSpeedGustMPH,Humidity,HourlyPrecipIn,Conditions,Clouds,dailyrainin,SoftwareType,DateUTC
2013-04-11 03:05:00,47.4,46.9,29.80,ENE,63,4.0,8.0,98,0.00,,,0.01,Wunderground v.1.15,2013-04-11 07:05:00,
2013-04-11 03:10:00,47.1,46.6,29.80,ENE,59,4.0,8.0,98,0.00,,,0.01,Wunderground v.1.15,2013-04-11 07:10:00,
2013-04-11 03:15:00,46.9,46.4,29.82,NNE,26,3.0,8.0,98,0.00,,,0.01,Wunderground v.1.15,2013-04-11 07:15:00,
2013-04-11 03:20:00,46.6,46.1,29.82,North,5,4.0,4.0,98,0.00,,,0.01,Wunderground v.1.15,2013-04-11 07:20:00,
2013-04-11 03:25:00,46.4,45.9,29.83,NNE,29,3.0,8.0,98,0.00,,,0.01,Wunderground v.1.15,2013-04-11 07:25:00,
2013-04-11 03:35:00,45.8,45.3,29.83,ENE,67,2.0,8.0,98,0.00,,,0.01,Wunderground v.1.15,2013-04-11 07:35:00,
2013-04-11 03:45:00,45.4,44.9,29.84,NNE,29,2.0,2.0,98,0.00,,,0.01,Wunderground v.1.15,2013-04-11 07:45:00,
2013-04-11 03:50:00,45.3,45.0,29.85,NNE,25,2.0,8.0,99,0.00,,,0.01,Wunderground v.1.15,2013-04-11 07:50:00,
2013-04-11 03:55:00,45.1,44.8,29.85,NE,38,2.0,8.0,99,0.00,,,0.01,Wunderground v.1.15,2013-04-11 07:55:00,
2013-04-11 04:00:00,44.7,44.2,29.84,NNE,28,3.0,8.0,98,0.00,,,0.01,Wunderground v.1.15,2013-04-11 08:00:00,
2013-04-11 04:05:00,44.5,44.2,29.84,NNE,16,4.0,8.0,99,0.00,,,0.01,Wunderground v.1.15,2013-04-11 08:05:00,
2013-04-11 04:15:00,44.2,43.9,29.84,NE,36,4.0,8.0,99,0.00,,,0.01,Wunderground v.1.15,2013-04-11 08:15:00,
2013-04-11 04:25:00,44.0,43.7,29.85,NE,53,4.0,8.0,99,0.00,,,0.01,Wunderground v.1.15,2013-04-11 08:25:00,
2013-04-11 04:30:00,43.8,43.5,29.85,North,5,5.0,8.0,99,0.00,,,0.01,Wunderground v.1.15,2013-04-11 08:30:00,
2013-04-11 04:35:00,43.7,43.4,29.86,ENE,57,5.0,8.0,99,0.00,,,0.01,Wunderground v.1.15,2013-04-11 08:35:00,
2013-04-11 04:40:00,43.5,43.2,29.86,NNE,14,5.0,8.0,99,0.00,,,0.01,Wunderground v.1.15,2013-04-11 08:40:00,
2013-04-11 04:45:00,43.4,43.1,29.85,NNE,19,5.0,8.0,99,0.00,,,0.01,Wunderground v.1.15,2013-04-11 08:45:00,
2013-04-11 04:50:00,43.3,43.0,29.85,NNE,24,5.0,5.0,99,0.00,,,0.01,Wunderground v.1.15,2013-04-11 08:50:00,
2013-04-11 05:00:00,43.3,43.0,29.86,NNE,19,4.0,8.0,99,0.00,,,0.01,Wunderground v.1.15,2013-04-11 09:00:00,
2013-04-11 05:05:00,43.3,43.0,29.86,North,5,3.0,8.0,99,0.00,,,0.01,Wunderground v.1.15,2013-04-11 09:05:00,
2013-04-11 05:10:00,43.3,43.0,29.86,NNE,23,2.0,2.0,99,0.00,,,0.01,Wunderground v.1.15,2013-04-11 09:10:00,
2013-04-11 05:15:00,43.3,43.0,29.87,NNE,18,0.0,8.0,99,0.00,,,0.01,Wunderground v.1.15,2013-04-11 09:15:00,
2013-04-11 05:25:00,43.3,43.0,29.88,North,9,1.0,8.0,99,0.00,,,0.01,Wunderground v.1.15,2013-04-11 09:25:00,
2013-04-11 05:35:00,43.2,43.2,29.89,NE,56,2.0,8.0,100,0.00,,,0.01,Wunderground v.1.15,2013-04-11 09:35:00,
2013-04-11 05:40:00,43.1,43.1,29.89,NE,36,2.0,8.0,100,0.00,,,0.01,Wunderground v.1.15,2013-04-11 09:40:00,
2013-04-11 05:45:00,43.0,43.0,29.89,NNE,22,3.0,8.0,100,0.00,,,0.01,Wunderground v.1.15,2013-04-11 09:45:00,
2013-04-11 05:50:00,42.9,42.9,29.89,ENE,74,3.0,8.0,100,0.00,,,0.01,Wunderground v.1.15,2013-04-11 09:50:00,
2013-04-11 05:55:00,42.9,42.6,29.89,NNE,29,3.0,8.0,99,0.00,,,0.01,Wunderground v.1.15,2013-04-11 09:55:00,
2013-04-11 06:00:00,42.8,42.8,29.89,NE,44,4.0,4.0,100,0.00,,,0.01,Wunderground v.1.15,2013-04-11 10:00:00,
2013-04-11 06:05:00,42.7,42.7,29.90,NE,42,3.0,8.0,100,0.00,,,0.01,Wunderground v.1.15,2013-04-11 10:05:00,
2013-04-11 06:15:00,42.6,42.6,29.91,NE,43,4.0,8.0,100,0.00,,,0.01,Wunderground v.1.15,2013-04-11 10:15:00,
2013-04-11 06:20:00,42.6,42.6,29.91,SE,134,3.0,3.0,100,0.00,,,0.01,Wunderground v.1.15,2013-04-11 10:20:00,
2013-04-11 06:25:00,42.6,42.6,29.91,NE,42,2.0,8.0,100,0.00,,,0.01,Wunderground v.1.15,2013-04-11 10:25:00,
2013-04-11 06:30:00,42.6,42.6,29.92,NNE,13,3.0,8.0,100,0.00,,,0.01,Wunderground v.1.15,2013-04-11 10:30:00,
2013-04-11 06:35:00,42.6,42.6,29.92,NE,46,4.0,8.0,100,0.00,,,0.01,Wunderground v.1.15,2013-04-11 10:35:00,
2013-04-11 06:40:00,42.5,42.5,29.92,NE,40,3.0,8.0,100,0.00,,,0.01,Wunderground v.1.15,2013-04-11 10:40:00,
2013-04-11 06:45:00,42.4,42.4,29.92,NE,42,2.0,8.0,100,0.00,,,0.01,Wunderground v.1.15,2013-04-11 10:45:00,
2013-04-11 06:50:00,42.4,42.4,29.92,NE,51,2.0,8.0,100,0.00,,,0.01,Wunderground v.1.15,2013-04-11 10:50:00,
2013-04-11 06:55:00,42.3,42.3,29.92,ENE,61,2.0,8.0,100,0.00,,,0.01,Wunderground v.1.15,2013-04-11 10:55:00,
2013-04-11 07:05:00,42.4,42.4,29.92,NE,47,2.0,8.0,100,0.00,,,0.01,Wunderground v.1.15,2013-04-11 11:05:00,
2013-04-11 07:15:00,42.5,42.5,29.90,ENE,57,1.0,5.0,100,0.00,,,0.01,Wunderground v.1.15,2013-04-11 11:15:00,
2013-04-11 07:20:00,42.5,42.5,29.92,NNW,340,1.0,8.0,100,0.00,,,0.01,Wunderground v.1.15,2013-04-11 11:20:00,
2013-04-11 07:25:00,42.7,42.7,29.92,NW,325,1.0,8.0,100,0.00,,,0.01,Wunderground v.1.15,2013-04-11 11:25:00,
2013-04-11 07:30:00,42.7,42.7,29.93,NW,325,0.0,8.0,100,0.00,,,0.01,Wunderground v.1.15,2013-04-11 11:30:00,
2013-04-11 07:35:00,42.8,42.8,29.94,East,94,0.0,8.0,100,0.00,,,0.01,Wunderground v.1.15,2013-04-11 11:35:00,
2013-04-11 07:40:00,42.8,42.8,29.94,East,90,0.0,8.0,100,0.00,,,0.01,Wunderground v.1.15,2013-04-11 11:40:00,
2013-04-11 07:45:00,42.9,42.9,29.94,NNE,33,0.0,8.0,100,0.00,,,0.01,Wunderground v.1.15,2013-04-11 11:45:00,
2013-04-11 07:55:00,43.2,43.2,29.94,NNE,33,0.0,8.0,100,0.00,,,0.01,Wunderground v.1.15,2013-04-11 11:55:00,
2013-04-11 08:00:00,43.4,43.4,29.94,NE,48,0.0,8.0,100,0.00,,,0.01,Wunderground v.1.15,2013-04-11 12:00:00,
2013-04-11 08:05:00,43.5,43.5,29.94,NNE,28,1.0,8.0,100,0.00,,,0.01,Wunderground v.1.15,2013-04-11 12:05:00,
2013-04-11 08:10:00,43.5,43.5,29.95,NNE,30,1.0,1.0,100,0.00,,,0.01,Wunderground v.1.15,2013-04-11 12:10:00,
2013-04-11 08:15:00,43.6,43.6,29.95,NNE,22,0.0,8.0,100,0.00,,,0.01,Wunderground v.1.15,2013-04-11 12:15:00,
2013-04-11 08:20:00,43.6,43.6,29.95,NNE,22,0.0,8.0,100,0.00,,,0.01,Wunderground v.1.15,2013-04-11 12:20:00,
2013-04-11 08:25:00,43.5,43.5,29.95,NNE,22,1.0,8.0,100,0.00,,,0.01,Wunderground v.1.15,2013-04-11 12:25:00,
2013-04-11 08:35:00,43.4,43.4,29.96,NE,50,2.0,8.0,100,0.00,,,0.01,Wunderground v.1.15,2013-04-11 12:35:00,
2013-04-11 08:40:00,43.6,43.6,29.96,NNE,25,2.0,2.0,100,0.00,,,0.01,Wunderground v.1.15,2013-04-11 12:40:00,
2013-04-11 08:45:00,43.7,43.7,29.96,NNE,23,2.0,8.0,100,0.00,,,0.01,Wunderground v.1.15,2013-04-11 12:45:00,
2013-04-11 08:50:00,43.8,43.8,29.96,NNE,30,1.0,8.0,100,0.00,,,0.01,Wunderground v.1.15,2013-04-11 12:50:00,
2013-04-11 08:55:00,43.8,43.8,29.95,NE,40,1.0,8.0,100,0.00,,,0.01,Wunderground v.1.15,2013-04-11 12:55:00,
2013-04-11 09:00:00,43.9,43.9,29.96,NNE,25,1.0,8.0,100,0.00,,,0.01,Wunderground v.1.15,2013-04-11 13:00:00,
2013-04-11 09:10:00,44.2,44.2,29.96,ENE,71,1.0,8.0,100,0.00,,,0.01,Wunderground v.1.15,2013-04-11 13:10:00,
2013-04-11 09:15:00,43.9,43.9,29.95,ENE,68,2.0,8.0,100,0.00,,,0.01,Wunderground v.1.15,2013-04-11 13:15:00,
2013-04-11 09:20:00,44.1,44.1,29.95,ENE,61,2.0,8.0,100,0.00,,,0.01,Wunderground v.1.15,2013-04-11 13:20:00,
2013-04-11 09:30:00,44.9,44.9,29.96,ENE,71,2.0,8.0,100,0.00,,,0.01,Wunderground v.1.15,2013-04-11 13:30:00,
2013-04-11 09:35:00,45.0,45.0,29.96,NE,52,2.0,8.0,100,0.00,,,0.01,Wunderground v.1.15,2013-04-11 13:35:00,
2013-04-11 09:40:00,45.1,45.1,29.95,NNE,13,2.0,8.0,100,0.00,,,0.01,Wunderground v.1.15,2013-04-11 13:40:00,
2013-04-11 09:45:00,45.3,45.0,29.95,NE,49,2.0,8.0,99,0.00,,,0.01,Wunderground v.1.15,2013-04-11 13:45:00,
2013-04-11 09:50:00,45.8,45.5,29.96,ENE,66,3.0,3.0,99,0.00,,,0.01,Wunderground v.1.15,2013-04-11 13:50:00,
2013-04-11 10:00:00,46.1,45.3,29.97,East,97,1.0,8.0,97,0.00,,,0.01,Wunderground v.1.15,2013-04-11 14:00:00,
2013-04-11 10:05:00,46.4,45.6,29.97,North,9,2.0,8.0,97,0.00,,,0.01,Wunderground v.1.15,2013-04-11 14:05:00,
2013-04-11 10:10:00,46.9,45.8,29.97,ENE,65,2.0,8.0,96,0.00,,,0.01,Wunderground v.1.15,2013-04-11 14:10:00,
2013-04-11 10:15:00,47.0,45.6,29.97,North,360,4.0,8.0,95,0.00,,,0.01,Wunderground v.1.15,2013-04-11 14:15:00,
2013-04-11 10:20:00,47.0,45.4,29.96,ENE,76,4.0,8.0,94,0.00,,,0.01,Wunderground v.1.15,2013-04-11 14:20:00,
2013-04-11 10:25:00,47.2,45.8,29.97,NE,43,3.0,8.0,95,0.00,,,0.01,Wunderground v.1.15,2013-04-11 14:25:00,
2013-04-11 10:30:00,47.3,45.4,29.97,NNE,12,3.0,3.0,93,0.00,,,0.01,Wunderground v.1.15,2013-04-11 14:30:00,
2013-04-11 10:35:00,47.4,45.5,29.97,NE,43,2.0,5.0,93,0.00,,,0.01,Wunderground v.1.15,2013-04-11 14:35:00,
2013-04-11 10:45:00,47.7,45.5,29.98,NNW,345,3.0,8.0,92,0.00,,,0.01,Wunderground v.1.15,2013-04-11 14:45:00,
2013-04-11 10:50:00,48.2,46.3,29.97,NE,45,3.0,3.0,93,0.00,,,0.01,Wunderground v.1.15,2013-04-11 14:50:00,
2013-04-11 10:55:00,48.9,46.7,29.97,NE,51,3.0,6.0,92,0.00,,,0.01,Wunderground v.1.15,2013-04-11 14:55:00,
2013-04-11 11:00:00,49.4,46.3,29.98,East,84,4.0,8.0,89,0.00,,,0.01,Wunderground v.1.15,2013-04-11 15:00:00,
2013-04-11 11:10:00,49.5,45.8,29.97,ENE,69,3.0,8.0,87,0.00,,,0.01,Wunderground v.1.15,2013-04-11 15:10:00,
2013-04-11 11:15:00,49.9,46.5,29.97,ENE,57,3.0,8.0,88,0.00,,,0.01,Wunderground v.1.15,2013-04-11 15:15:00,
2013-04-11 11:20:00,50.2,46.2,29.98,NNE,13,4.0,8.0,86,0.00,,,0.01,Wunderground v.1.15,2013-04-11 15:20:00,
2013-04-11 11:25:00,50.2,46.2,29.98,East,86,3.0,8.0,86,0.00,,,0.01,Wunderground v.1.15,2013-04-11 15:25:00,
2013-04-11 11:35:00,50.0,45.4,29.98,NE,34,4.0,8.0,84,0.00,,,0.01,Wunderground v.1.15,2013-04-11 15:35:00,
2013-04-11 11:40:00,49.8,44.8,29.99,ESE,104,4.0,8.0,83,0.00,,,0.01,Wunderground v.1.15,2013-04-11 15:40:00,
2013-04-11 11:45:00,50.0,46.0,29.99,NE,49,3.0,8.0,86,0.00,,,0.01,Wunderground v.1.15,2013-04-11 15:45:00,
2013-04-11 11:50:00,50.1,45.5,29.99,ENE,61,2.0,2.0,84,0.00,,,0.01,Wunderground v.1.15,2013-04-11 15:50:00,
2013-04-11 11:55:00,49.5,44.6,29.99,NE,38,3.0,3.0,83,0.00,,,0.01,Wunderground v.1.15,2013-04-11 15:55:00,
2013-04-11 12:00:00,49.5,45.2,29.98,NNE,15,3.0,8.0,85,0.00,,,0.01,Wunderground v.1.15,2013-04-11 16:00:00,
2013-04-11 12:05:00,49.9,44.9,29.99,NE,40,3.0,8.0,83,0.00,,,0.01,Wunderground v.1.15,2013-04-11 16:05:00,
2013-04-11 12:15:00,51.0,45.4,29.98,North,355,3.0,8.0,81,0.00,,,0.01,Wunderground v.1.15,2013-04-11 16:15:00,
2013-04-11 12:20:00,51.6,45.3,29.98,North,355,3.0,8.0,79,0.00,,,0.01,Wunderground v.1.15,2013-04-11 16:20:00,
2013-04-11 12:25:00,52.2,46.2,29.99,North,9,3.0,8.0,80,0.00,,,0.01,Wunderground v.1.15,2013-04-11 16:25:00,
2013-04-11 12:30:00,52.5,46.5,30.00,NNE,29,3.0,8.0,80,0.00,,,0.01,Wunderground v.1.15,2013-04-11 16:30:00,
2013-04-11 12:35:00,52.1,44.8,29.99,NNE,22,4.0,8.0,76,0.00,,,0.01,Wunderground v.1.15,2013-04-11 16:35:00,
2013-04-11 12:45:00,51.4,44.1,29.99,ENE,70,4.0,5.0,76,0.00,,,0.01,Wunderground v.1.15,2013-04-11 16:45:00,
2013-04-11 12:50:00,51.5,44.9,29.99,ENE,67,5.0,10.0,78,0.00,,,0.01,Wunderground v.1.15,2013-04-11 16:50:00,
2013-04-11 12:55:00,51.7,43.7,29.99,NE,47,5.0,10.0,74,0.00,,,0.01,Wunderground v.1.15,2013-04-11 16:55:00,
2013-04-11 13:00:00,51.4,42.7,29.99,NNE,14,4.0,8.0,72,0.00,,,0.01,Wunderground v.1.15,2013-04-11 17:00:00,
2013-04-11 13:05:00,50.9,42.6,29.99,North,5,5.0,8.0,73,0.00,,,0.01,Wunderground v.1.15,2013-04-11 17:05:00,
2013-04-11 13:10:00,50.7,42.7,30.00,ENE,61,5.0,5.0,74,0.00,,,0.01,Wunderground v.1.15,2013-04-11 17:10:00,
2013-04-11 13:15:00,50.8,42.8,29.99,NE,45,4.0,8.0,74,0.00,,,0.01,Wunderground v.1.15,2013-04-11 17:15:00,
2013-04-11 13:25:00,50.3,42.0,30.00,NE,47,4.0,8.0,73,0.00,,,0.01,Wunderground v.1.15,2013-04-11 17:25:00,
2013-04-11 13:30:00,49.9,42.3,30.00,NE,43,5.0,5.0,75,0.00,,,0.01,Wunderground v.1.15,2013-04-11 17:30:00,
2013-04-11 13:35:00,50.2,42.2,30.00,East,99,3.0,8.0,74,0.00,,,0.01,Wunderground v.1.15,2013-04-11 17:35:00,
2013-04-11 13:40:00,50.3,42.0,30.00,NE,50,3.0,8.0,73,0.00,,,0.01,Wunderground v.1.15,2013-04-11 17:40:00,
2013-04-11 13:45:00,50.0,41.7,30.00,NNW,342,4.0,8.0,73,0.00,,,0.01,Wunderground v.1.15,2013-04-11 17:45:00,
2013-04-11 13:50:00,50.0,41.3,30.00,NNE,26,4.0,4.0,72,0.00,,,0.01,Wunderground v.1.15,2013-04-11 17:50:00,
2013-04-11 13:55:00,49.7,41.4,30.00,ENE,78,3.0,8.0,73,0.00,,,0.01,Wunderground v.1.15,2013-04-11 17:55:00,
2013-04-11 14:00:00,49.3,41.0,30.00,NNE,15,3.0,3.0,73,0.00,,,0.01,Wunderground v.1.15,2013-04-11 18:00:00,
2013-04-11 14:10:00,49.3,42.4,30.00,East,86,2.0,8.0,77,0.00,,,0.01,Wunderground v.1.15,2013-04-11 18:10:00,
2013-04-11 14:15:00,49.2,42.3,30.01,NNE,16,3.0,8.0,77,0.00,,,0.01,Wunderground v.1.15,2013-04-11 18:15:00,
2013-04-11 14:20:00,49.4,41.1,30.01,NNE,17,3.0,8.0,73,0.00,,,0.01,Wunderground v.1.15,2013-04-11 18:20:00,
2013-04-11 14:25:00,49.1,40.1,30.01,NNE,32,3.0,8.0,71,0.00,,,0.01,Wunderground v.1.15,2013-04-11 18:25:00,
2013-04-11 14:30:00,49.1,40.5,30.01,ENE,59,3.0,3.0,72,0.00,,,0.01,Wunderground v.1.15,2013-04-11 18:30:00,
2013-04-11 14:35:00,49.3,41.0,30.00,NNE,18,3.0,8.0,73,0.00,,,0.01,Wunderground v.1.15,2013-04-11 18:35:00,
2013-04-11 14:45:00,49.6,42.0,30.00,NE,48,3.0,8.0,75,0.00,,,0.01,Wunderground v.1.15,2013-04-11 18:45:00,
2013-04-11 14:50:00,49.9,42.6,29.99,ESE,112,3.0,3.0,76,0.00,,,0.01,Wunderground v.1.15,2013-04-11 18:50:00,
2013-04-11 14:55:00,50.0,42.0,29.99,SE,132,2.0,8.0,74,0.00,,,0.01,Wunderground v.1.15,2013-04-11 18:55:00,
2013-04-11 15:00:00,50.0,42.0,30.00,NE,38,2.0,8.0,74,0.00,,,0.01,Wunderground v.1.15,2013-04-11 19:00:00,
2013-04-11 15:05:00,49.7,41.7,30.00,NNE,31,3.0,8.0,74,0.00,,,0.01,Wunderground v.1.15,2013-04-11 19:05:00,
2013-04-11 15:10:00,49.6,42.0,30.00,NE,53,3.0,3.0,75,0.00,,,0.01,Wunderground v.1.15,2013-04-11 19:10:00,
2013-04-11 15:20:00,49.9,41.6,30.00,ENE,69,1.0,8.0,73,0.00,,,0.01,Wunderground v.1.15,2013-04-11 19:20:00,
2013-04-11 15:25:00,50.0,40.6,30.00,ENE,58,1.0,8.0,70,0.00,,,0.01,Wunderground v.1.15,2013-04-11 19:25:00,
2013-04-11 15:30:00,49.7,40.7,30.00,North,355,2.0,2.0,71,0.00,,,0.01,Wunderground v.1.15,2013-04-11 19:30:00,
2013-04-11 15:35:00,49.6,39.8,30.00,NNE,23,2.0,3.0,69,0.00,,,0.01,Wunderground v.1.15,2013-04-11 19:35:00,
2013-04-11 15:40:00,49.3,40.3,29.99,North,355,1.0,8.0,71,0.00,,,0.01,Wunderground v.1.15,2013-04-11 19:40:00,
2013-04-11 15:45:00,49.3,39.9,30.00,North,355,2.0,8.0,70,0.00,,,0.01,Wunderground v.1.15,2013-04-11 19:45:00,
2013-04-11 15:50:00,49.2,40.2,30.00,NNW,328,2.0,8.0,71,0.00,,,0.01,Wunderground v.1.15,2013-04-11 19:50:00,
2013-04-11 16:00:00,48.7,39.4,29.99,ENE,59,3.0,8.0,70,0.00,,,0.01,Wunderground v.1.15,2013-04-11 20:00:00,
2013-04-11 16:05:00,48.6,39.3,29.99,ENE,76,4.0,8.0,70,0.00,,,0.01,Wunderground v.1.15,2013-04-11 20:05:00,
2013-04-11 16:10:00,48.3,38.2,30.00,NE,34,4.0,4.0,68,0.00,,,0.01,Wunderground v.1.15,2013-04-11 20:10:00,
2013-04-11 16:15:00,48.1,38.4,30.00,NNE,28,3.0,8.0,69,0.00,,,0.01,Wunderground v.1.15,2013-04-11 20:15:00,
2013-04-11 16:20:00,47.9,37.8,30.00,NE,46,3.0,8.0,68,0.00,,,0.01,Wunderground v.1.15,2013-04-11 20:20:00,
2013-04-11 16:30:00,47.2,37.2,29.99,NE,50,4.0,4.0,68,0.00,,,0.01,Wunderground v.1.15,2013-04-11 20:30:00,
2013-04-11 16:35:00,47.1,37.4,29.99,North,5,5.0,5.0,69,0.00,,,0.01,Wunderground v.1.15,2013-04-11 20:35:00,
2013-04-11 16:40:00,47.0,37.4,29.99,NE,54,4.0,8.0,69,0.00,,,0.01,Wunderground v.1.15,2013-04-11 20:40:00,
2013-04-11 16:45:00,47.0,37.0,29.99,NE,45,3.0,8.0,68,0.00,,,0.01,Wunderground v.1.15,2013-04-11 20:45:00,
2013-04-11 16:50:00,46.9,36.9,29.98,NNE,17,2.0,8.0,68,0.00,,,0.01,Wunderground v.1.15,2013-04-11 20:50:00,
2013-04-11 16:55:00,46.8,36.8,29.99,NNE,32,2.0,8.0,68,0.00,,,0.01,Wunderground v.1.15,2013-04-11 20:55:00,
2013-04-11 17:00:00,46.5,36.5,29.99,NNE,26,3.0,8.0,68,0.00,,,0.01,Wunderground v.1.15,2013-04-11 21:00:00,
2013-04-11 17:10:00,46.2,36.2,29.99,NE,40,4.0,4.0,68,0.00,,,0.01,Wunderground v.1.15,2013-04-11 21:10:00,
2013-04-11 17:15:00,46.3,36.7,30.00,NE,40,3.0,8.0,69,0.00,,,0.01,Wunderground v.1.15,2013-04-11 21:15:00,
2013-04-11 17:20:00,46.2,36.6,30.00,NNE,30,2.0,2.0,69,0.00,,,0.01,Wunderground v.1.15,2013-04-11 21:20:00,
2013-04-11 17:25:00,46.1,35.7,30.00,NE,44,2.0,3.0,67,0.00,,,0.01,Wunderground v.1.15,2013-04-11 21:25:00,
2013-04-11 17:30:00,46.0,36.4,30.00,NNE,22,2.0,8.0,69,0.00,,,0.01,Wunderground v.1.15,2013-04-11 21:30:00,
2013-04-11 17:35:00,45.7,35.4,30.01,NNE,13,2.0,8.0,67,0.00,,,0.01,Wunderground v.1.15,2013-04-11 21:35:00,
2013-04-11 17:45:00,45.1,35.2,30.01,NNE,20,3.0,8.0,68,0.00,,,0.01,Wunderground v.1.15,2013-04-11 21:45:00,
2013-04-11 17:50:00,44.7,34.8,30.01,NE,49,4.0,4.0,68,0.00,,,0.01,Wunderground v.1.15,2013-04-11 21:50:00,
2013-04-11 17:55:00,44.4,34.9,30.00,NE,49,4.0,8.0,69,0.00,,,0.01,Wunderground v.1.15,2013-04-11 21:55:00,
2013-04-11 18:00:00,44.3,34.8,30.01,NNE,24,3.0,3.0,69,0.00,,,0.01,Wunderground v.1.15,2013-04-11 22:00:00,
2013-04-11 18:10:00,44.1,34.9,30.00,NE,48,2.0,2.0,70,0.00,,,0.01,Wunderground v.1.15,2013-04-11 22:10:00,
2013-04-11 18:15:00,44.1,35.3,30.01,NE,44,2.0,8.0,71,0.00,,,0.01,Wunderground v.1.15,2013-04-11 22:15:00,
2013-04-11 18:25:00,43.9,35.1,30.01,NE,37,2.0,8.0,71,0.00,,,0.01,Wunderground v.1.15,2013-04-11 22:25:00,
2013-04-11 18:30:00,43.9,35.1,30.01,NE,52,2.0,8.0,71,0.00,,,0.01,Wunderground v.1.15,2013-04-11 22:30:00,
2013-04-11 18:35:00,43.9,35.1,30.01,NE,34,2.0,8.0,71,0.00,,,0.01,Wunderground v.1.15,2013-04-11 22:35:00,
2013-04-11 18:40:00,43.9,35.1,30.01,ENE,74,2.0,2.0,71,0.00,,,0.01,Wunderground v.1.15,2013-04-11 22:40:00,
2013-04-11 18:45:00,43.9,35.1,30.02,NE,37,2.0,8.0,71,0.00,,,0.01,Wunderground v.1.15,2013-04-11 22:45:00,
2013-04-11 18:50:00,43.9,35.1,30.02,NNE,30,2.0,2.0,71,0.00,,,0.01,Wunderground v.1.15,2013-04-11 22:50:00,
2013-04-11 19:00:00,43.7,35.3,30.01,NE,51,2.0,8.0,72,0.00,,,0.01,Wunderground v.1.15,2013-04-11 23:00:00,
2013-04-11 19:05:00,43.4,34.3,30.02,ENE,71,2.0,8.0,70,0.00,,,0.01,Wunderground v.1.15,2013-04-11 23:05:00,
2013-04-11 19:10:00,43.1,34.0,30.02,NNE,17,3.0,3.0,70,0.00,,,0.01,Wunderground v.1.15,2013-04-11 23:10:00,
2013-04-11 19:15:00,43.0,34.2,30.02,NNE,31,2.0,8.0,71,0.00,,,0.01,Wunderground v.1.15,2013-04-11 23:15:00,
2013-04-11 19:20:00,42.8,34.4,30.02,NNE,28,2.0,2.0,72,0.00,,,0.01,Wunderground v.1.15,2013-04-11 23:20:00,
2013-04-11 19:25:00,42.7,34.3,30.02,North,9,1.0,3.0,72,0.00,,,0.01,Wunderground v.1.15,2013-04-11 23:25:00,
2013-04-11 19:35:00,42.5,33.8,30.02,NE,53,2.0,8.0,71,0.00,,,0.01,Wunderground v.1.15,2013-04-11 23:35:00,
2013-04-11 19:40:00,42.4,34.0,30.02,NE,43,2.0,8.0,72,0.00,,,0.01,Wunderground v.1.15,2013-04-11 23:40:00,
2013-04-11 19:45:00,42.3,33.9,30.03,NE,41,2.0,8.0,72,0.00,,,0.01,Wunderground v.1.15,2013-04-11 23:45:00,
2013-04-11 19:50:00,42.3,33.9,30.03,NNE,19,2.0,8.0,72,0.00,,,0.01,Wunderground v.1.15,2013-04-11 23:50:00,
2013-04-11 19:55:00,42.2,34.2,30.03,NE,44,2.0,8.0,73,0.00,,,0.01,Wunderground v.1.15,2013-04-11 23:55:00,
2013-04-11 20:00:00,42.0,33.6,30.03,NNE,27,2.0,8.0,72,0.00,,,0.01,Wunderground v.1.15,2013-04-12 00:00:00,
2013-04-11 20:05:00,41.9,33.9,30.03,NE,53,2.0,8.0,73,0.00,,,0.01,Wunderground v.1.15,2013-04-12 00:05:00,
2013-04-11 20:10:00,41.8,33.8,30.03,NNE,19,2.0,8.0,73,0.00,,,0.01,Wunderground v.1.15,2013-04-12 00:10:00,
2013-04-11 20:20:00,41.7,34.0,30.03,ENE,65,1.0,8.0,74,0.00,,,0.01,Wunderground v.1.15,2013-04-12 00:20:00,
2013-04-11 20:25:00,41.7,34.0,30.03,ENE,75,1.0,8.0,74,0.00,,,0.01,Wunderground v.1.15,2013-04-12 00:25:00,
2013-04-11 20:30:00,41.7,34.0,30.04,East,86,0.0,8.0,74,0.00,,,0.01,Wunderground v.1.15,2013-04-12 00:30:00,
2013-04-11 20:35:00,41.8,34.5,30.05,East,86,0.0,8.0,75,0.00,,,0.01,Wunderground v.1.15,2013-04-12 00:35:00,
2013-04-11 20:40:00,41.9,34.6,30.05,East,85,0.0,8.0,75,0.00,,,0.01,Wunderground v.1.15,2013-04-12 00:40:00,
2013-04-11 20:45:00,42.0,34.6,30.05,East,85,0.0,8.0,75,0.00,,,0.01,Wunderground v.1.15,2013-04-12 00:45:00,
2013-04-11 20:55:00,42.2,34.8,30.05,ENE,76,1.0,8.0,75,0.00,,,0.01,Wunderground v.1.15,2013-04-12 00:55:00,
2013-04-11 21:00:00,42.4,35.0,30.05,East,81,1.0,1.0,75,0.00,,,0.01,Wunderground v.1.15,2013-04-12 01:00:00,
2013-04-11 21:05:00,42.5,34.8,30.06,East,99,1.0,8.0,74,0.00,,,0.01,Wunderground v.1.15,2013-04-12 01:05:00,
2013-04-11 21:10:00,42.8,34.7,30.06,ESE,119,1.0,8.0,73,0.00,,,0.01,Wunderground v.1.15,2013-04-12 01:10:00,
2013-04-11 21:15:00,43.1,35.0,30.06,East,88,1.0,8.0,73,0.00,,,0.01,Wunderground v.1.15,2013-04-12 01:15:00,
2013-04-11 21:20:00,43.1,34.7,30.06,ESE,109,1.0,1.0,72,0.00,,,0.01,Wunderground v.1.15,2013-04-12 01:20:00,
2013-04-11 21:25:00,43.1,34.7,30.06,SSE,161,1.0,8.0,72,0.00,,,0.01,Wunderground v.1.15,2013-04-12 01:25:00,
2013-04-11 21:35:00,43.2,34.4,30.05,ESE,107,2.0,8.0,71,0.00,,,0.01,Wunderground v.1.15,2013-04-12 01:35:00,
2013-04-11 21:40:00,43.2,34.1,30.05,South,182,2.0,8.0,70,0.00,,,0.01,Wunderground v.1.15,2013-04-12 01:40:00,
2013-04-11 21:45:00,43.1,34.0,30.06,ESE,115,2.0,8.0,70,0.00,,,0.01,Wunderground v.1.15,2013-04-12 01:45:00,
2013-04-11 21:50:00,43.1,33.6,30.07,ESE,103,2.0,8.0,69,0.00,,,0.01,Wunderground v.1.15,2013-04-12 01:50:00,
2013-04-11 21:55:00,43.0,33.5,30.07,SSE,149,2.0,8.0,69,0.00,,,0.01,Wunderground v.1.15,2013-04-12 01:55:00,
2013-04-11 22:00:00,42.9,33.4,30.07,SE,134,2.0,8.0,69,0.00,,,0.01,Wunderground v.1.15,2013-04-12 02:00:00,
2013-04-11 22:05:00,42.8,33.3,30.07,SSE,166,2.0,8.0,69,0.00,,,0.01,Wunderground v.1.15,2013-04-12 02:05:00,
2013-04-11 22:10:00,42.8,33.7,30.08,East,97,1.0,8.0,70,0.00,,,0.01,Wunderground v.1.15,2013-04-12 02:10:00,
2013-04-11 22:15:00,42.7,33.6,30.07,South,171,1.0,8.0,70,0.00,,,0.01,Wunderground v.1.15,2013-04-12 02:15:00,
2013-04-11 22:25:00,42.5,33.8,30.07,SSE,167,2.0,8.0,71,0.00,,,0.01,Wunderground v.1.15,2013-04-12 02:25:00,
2013-04-11 22:30:00,42.4,34.0,30.07,NE,53,1.0,8.0,72,0.00,,,0.01,Wunderground v.1.15,2013-04-12 02:30:00,
2013-04-11 22:35:00,42.3,33.6,30.07,East,96,1.0,8.0,71,0.00,,,0.01,Wunderground v.1.15,2013-04-12 02:35:00,
2013-04-11 22:45:00,42.0,33.3,30.08,SE,129,1.0,8.0,71,0.00,,,0.01,Wunderground v.1.15,2013-04-12 02:45:00,
2013-04-11 22:50:00,41.9,33.5,30.08,SSE,156,1.0,8.0,72,0.00,,,0.01,Wunderground v.1.15,2013-04-12 02:50:00,
2013-04-11 22:55:00,41.7,33.3,30.08,SSE,160,1.0,8.0,72,0.00,,,0.01,Wunderground v.1.15,2013-04-12 02:55:00,
2013-04-11 23:00:00,41.6,33.6,30.07,SE,133,2.0,2.0,73,0.00,,,0.01,Wunderground v.1.15,2013-04-12 03:00:00,
2013-04-11 23:10:00,41.3,33.0,30.07,South,170,2.0,8.0,72,0.00,,,0.01,Wunderground v.1.15,2013-04-12 03:10:00,
2013-04-11 23:15:00,41.2,33.2,30.08,South,171,2.0,8.0,73,0.00,,,0.01,Wunderground v.1.15,2013-04-12 03:15:00,
2013-04-11 23:20:00,41.1,33.1,30.08,South,171,2.0,2.0,73,0.00,,,0.01,Wunderground v.1.15,2013-04-12 03:20:00,
2013-04-11 23:25:00,40.9,32.6,30.08,SSE,167,4.0,4.0,72,0.00,,,0.01,Wunderground v.1.15,2013-04-12 03:25:00,
2013-04-11 23:30:00,40.8,32.5,30.08,SE,146,4.0,8.0,72,0.00,,,0.01,Wunderground v.1.15,2013-04-12 03:30:00,
2013-04-11 23:35:00,40.5,32.2,30.08,South,182,4.0,8.0,72,0.00,,,0.01,Wunderground v.1.15,2013-04-12 03:35:00,
2013-04-11 23:40:00,40.3,32.0,30.08,SSE,163,5.0,5.0,72,0.00,,,0.01,Wunderground v.1.15,2013-04-12 03:40:00,
2013-04-11 23:50:00,40.0,31.7,30.08,South,171,5.0,8.0,72,0.00,,,0.01,Wunderground v.1.15,2013-04-12 03:50:00,
2013-04-11 23:55:00,39.8,32.2,30.08,South,186,5.0,8.0,74,0.00,,,0.01,Wunderground v.1.15,2013-04-12 03:55:00,